sensor_id;sensor_type;location;lat;lon;timestamp;P1;durP1;ratioP1;P2;durP2;ratioP2
70216;SDS011;57608;0.000;0.000;2022-10-16T00:01:24;3.00;;;2.03;;
70216;SDS011;57608;0.000;0.000;2022-10-16T00:03:51;4.40;;;1.98;;
70216;SDS011;57608;0.000;0.000;2022-10-16T00:06:18;4.78;;;2.45;;
70216;SDS011;57608;0.000;0.000;2022-10-16T00:08:45;3.42;;;2.10;;
70216;SDS011;57608;0.000;0.000;2022-10-16T00:11:12;4.00;;;2.33;;
70216;SDS011;57608;0.000;0.000;2022-10-16T00:13:39;6.20;;;2.30;;
70216;SDS011;57608;0.000;0.000;2022-10-16T00:16:07;4.03;;;2.35;;
70216;SDS011;57608;0.000;0.000;2022-10-16T00:18:34;3.20;;;2.00;;
70216;SDS011;57608;0.000;0.000;2022-10-16T00:21:05;3.42;;;2.22;;
70216;SDS011;57608;0.000;0.000;2022-10-16T00:23:32;4.00;;;2.15;;
70216;SDS011;57608;0.000;0.000;2022-10-16T00:25:59;4.60;;;2.00;;
70216;SDS011;57608;0.000;0.000;2022-10-16T00:28:27;3.88;;;2.03;;
70216;SDS011;57608;0.000;0.000;2022-10-16T00:30:53;4.43;;;2.08;;
70216;SDS011;57608;0.000;0.000;2022-10-16T00:33:19;3.65;;;1.90;;
70216;SDS011;57608;0.000;0.000;2022-10-16T00:35:45;2.80;;;1.77;;
70216;SDS011;57608;0.000;0.000;2022-10-16T00:38:11;2.67;;;1.80;;
70216;SDS011;57608;0.000;0.000;2022-10-16T00:40:36;3.92;;;1.98;;
70216;SDS011;57608;0.000;0.000;2022-10-16T00:43:02;4.07;;;2.10;;
70216;SDS011;57608;0.000;0.000;2022-10-16T00:45:27;3.80;;;1.77;;
70216;SDS011;57608;0.000;0.000;2022-10-16T00:47:53;3.38;;;1.70;;
70216;SDS011;57608;0.000;0.000;2022-10-16T00:52:50;3.20;;;1.98;;
70216;SDS011;57608;0.000;0.000;2022-10-16T00:55:16;4.82;;;1.70;;
70216;SDS011;57608;0.000;0.000;2022-10-16T00:57:42;4.30;;;1.90;;
70216;SDS011;57608;0.000;0.000;2022-10-16T01:00:10;4.30;;;2.35;;
70216;SDS011;57608;0.000;0.000;2022-10-16T01:02:37;3.63;;;1.95;;
70216;SDS011;57608;0.000;0.000;2022-10-16T01:05:03;4.40;;;1.80;;
70216;SDS011;57608;0.000;0.000;2022-10-16T01:07:32;3.92;;;2.13;;
70216;SDS011;57608;0.000;0.000;2022-10-16T01:12:57;3.72;;;1.70;;
70216;SDS011;57608;0.000;0.000;2022-10-16T01:15:33;3.75;;;1.92;;
70216;SDS011;57608;0.000;0.000;2022-10-16T01:18:08;2.85;;;1.70;;
70216;SDS011;57608;0.000;0.000;2022-10-16T01:29:37;3.50;;;1.77;;
70216;SDS011;57608;0.000;0.000;2022-10-16T01:32:02;3.90;;;1.80;;
70216;SDS011;57608;0.000;0.000;2022-10-16T01:34:51;4.30;;;2.13;;
70216;SDS011;57608;0.000;0.000;2022-10-16T01:37:32;2.65;;;1.58;;
70216;SDS011;57608;0.000;0.000;2022-10-16T01:40:10;4.55;;;1.83;;
70216;SDS011;57608;0.000;0.000;2022-10-16T01:42:42;5.00;;;1.70;;
70216;SDS011;57608;0.000;0.000;2022-10-16T01:45:13;2.78;;;1.52;;
70216;SDS011;57608;0.000;0.000;2022-10-16T01:47:43;3.10;;;1.85;;
70216;SDS011;57608;0.000;0.000;2022-10-16T01:50:10;3.47;;;1.92;;
70216;SDS011;57608;0.000;0.000;2022-10-16T01:52:38;3.45;;;2.13;;
70216;SDS011;57608;0.000;0.000;2022-10-16T01:55:08;2.58;;;1.50;;
70216;SDS011;57608;0.000;0.000;2022-10-16T01:57:38;3.10;;;1.90;;
70216;SDS011;57608;0.000;0.000;2022-10-16T02:00:10;2.22;;;1.52;;
70216;SDS011;57608;0.000;0.000;2022-10-16T02:02:40;5.07;;;1.80;;
70216;SDS011;57608;0.000;0.000;2022-10-16T02:05:18;2.78;;;1.58;;
70216;SDS011;57608;0.000;0.000;2022-10-16T02:07:48;2.80;;;1.58;;
70216;SDS011;57608;0.000;0.000;2022-10-16T02:10:17;3.13;;;1.73;;
70216;SDS011;57608;0.000;0.000;2022-10-16T02:12:45;3.78;;;2.17;;
70216;SDS011;57608;0.000;0.000;2022-10-16T02:15:16;3.88;;;1.75;;
70216;SDS011;57608;0.000;0.000;2022-10-16T02:17:41;2.97;;;1.90;;
70216;SDS011;57608;0.000;0.000;2022-10-16T02:20:07;3.17;;;1.77;;
70216;SDS011;57608;0.000;0.000;2022-10-16T02:22:38;3.90;;;1.95;;
70216;SDS011;57608;0.000;0.000;2022-10-16T02:25:17;3.15;;;1.77;;
70216;SDS011;57608;0.000;0.000;2022-10-16T02:33:13;3.08;;;1.85;;
70216;SDS011;57608;0.000;0.000;2022-10-16T02:35:40;3.17;;;2.03;;
70216;SDS011;57608;0.000;0.000;2022-10-16T02:38:08;3.15;;;1.75;;
70216;SDS011;57608;0.000;0.000;2022-10-16T02:40:35;3.75;;;1.77;;
70216;SDS011;57608;0.000;0.000;2022-10-16T02:43:03;3.10;;;1.85;;
70216;SDS011;57608;0.000;0.000;2022-10-16T02:45:29;3.40;;;1.50;;
70216;SDS011;57608;0.000;0.000;2022-10-16T02:47:54;3.50;;;1.92;;
70216;SDS011;57608;0.000;0.000;2022-10-16T02:50:20;3.15;;;1.92;;
70216;SDS011;57608;0.000;0.000;2022-10-16T02:52:46;3.42;;;1.67;;
70216;SDS011;57608;0.000;0.000;2022-10-16T02:55:11;3.85;;;2.10;;
70216;SDS011;57608;0.000;0.000;2022-10-16T02:57:36;2.80;;;1.63;;
70216;SDS011;57608;0.000;0.000;2022-10-16T03:00:03;3.75;;;1.85;;
70216;SDS011;57608;0.000;0.000;2022-10-16T03:02:30;3.15;;;1.95;;
70216;SDS011;57608;0.000;0.000;2022-10-16T03:04:55;2.78;;;1.80;;
70216;SDS011;57608;0.000;0.000;2022-10-16T03:07:21;3.33;;;1.95;;
70216;SDS011;57608;0.000;0.000;2022-10-16T03:09:46;2.63;;;1.60;;
70216;SDS011;57608;0.000;0.000;2022-10-16T03:12:11;3.80;;;1.73;;
70216;SDS011;57608;0.000;0.000;2022-10-16T03:14:37;3.88;;;2.17;;
70216;SDS011;57608;0.000;0.000;2022-10-16T03:17:04;3.25;;;1.90;;
70216;SDS011;57608;0.000;0.000;2022-10-16T03:19:30;2.70;;;1.55;;
70216;SDS011;57608;0.000;0.000;2022-10-16T03:21:55;2.25;;;1.40;;
70216;SDS011;57608;0.000;0.000;2022-10-16T03:24:21;2.92;;;1.80;;
70216;SDS011;57608;0.000;0.000;2022-10-16T03:26:46;3.05;;;1.50;;
70216;SDS011;57608;0.000;0.000;2022-10-16T03:29:11;2.53;;;1.60;;
70216;SDS011;57608;0.000;0.000;2022-10-16T03:31:37;3.30;;;1.80;;
70216;SDS011;57608;0.000;0.000;2022-10-16T03:34:03;2.95;;;1.73;;
70216;SDS011;57608;0.000;0.000;2022-10-16T03:36:28;2.90;;;1.70;;
70216;SDS011;57608;0.000;0.000;2022-10-16T03:38:53;4.65;;;1.83;;
70216;SDS011;57608;0.000;0.000;2022-10-16T03:41:19;4.97;;;2.00;;
70216;SDS011;57608;0.000;0.000;2022-10-16T03:43:44;3.10;;;1.77;;
70216;SDS011;57608;0.000;0.000;2022-10-16T03:46:10;3.33;;;1.67;;
70216;SDS011;57608;0.000;0.000;2022-10-16T03:48:35;4.30;;;1.88;;
70216;SDS011;57608;0.000;0.000;2022-10-16T03:51:01;4.47;;;1.88;;
70216;SDS011;57608;0.000;0.000;2022-10-16T03:53:26;3.35;;;1.60;;
70216;SDS011;57608;0.000;0.000;2022-10-16T03:55:51;3.35;;;1.88;;
70216;SDS011;57608;0.000;0.000;2022-10-16T03:58:17;2.97;;;1.60;;
70216;SDS011;57608;0.000;0.000;2022-10-16T04:00:43;3.35;;;1.80;;
70216;SDS011;57608;0.000;0.000;2022-10-16T04:03:09;3.17;;;1.65;;
70216;SDS011;57608;0.000;0.000;2022-10-16T04:05:35;2.70;;;1.80;;
70216;SDS011;57608;0.000;0.000;2022-10-16T04:08:00;2.67;;;1.70;;
70216;SDS011;57608;0.000;0.000;2022-10-16T04:10:26;2.80;;;1.60;;
70216;SDS011;57608;0.000;0.000;2022-10-16T04:12:51;3.20;;;1.63;;
70216;SDS011;57608;0.000;0.000;2022-10-16T04:15:19;3.50;;;1.67;;
70216;SDS011;57608;0.000;0.000;2022-10-16T04:17:45;3.90;;;1.77;;
70216;SDS011;57608;0.000;0.000;2022-10-16T04:20:10;3.47;;;1.77;;
70216;SDS011;57608;0.000;0.000;2022-10-16T04:22:36;2.35;;;1.60;;
70216;SDS011;57608;0.000;0.000;2022-10-16T04:25:01;2.60;;;1.55;;
70216;SDS011;57608;0.000;0.000;2022-10-16T04:27:27;3.42;;;1.90;;
70216;SDS011;57608;0.000;0.000;2022-10-16T04:29:53;3.05;;;1.70;;
70216;SDS011;57608;0.000;0.000;2022-10-16T04:32:18;2.40;;;1.50;;
70216;SDS011;57608;0.000;0.000;2022-10-16T04:34:44;4.68;;;1.70;;
70216;SDS011;57608;0.000;0.000;2022-10-16T04:37:09;3.15;;;1.63;;
70216;SDS011;57608;0.000;0.000;2022-10-16T04:39:35;4.85;;;1.80;;
70216;SDS011;57608;0.000;0.000;2022-10-16T04:42:00;4.60;;;1.95;;
70216;SDS011;57608;0.000;0.000;2022-10-16T04:44:26;4.45;;;1.73;;
70216;SDS011;57608;0.000;0.000;2022-10-16T04:46:51;4.13;;;1.90;;
70216;SDS011;57608;0.000;0.000;2022-10-16T04:49:16;4.53;;;1.75;;
70216;SDS011;57608;0.000;0.000;2022-10-16T04:51:42;3.25;;;1.60;;
70216;SDS011;57608;0.000;0.000;2022-10-16T04:54:08;2.92;;;1.60;;
70216;SDS011;57608;0.000;0.000;2022-10-16T04:56:34;3.28;;;1.70;;
70216;SDS011;57608;0.000;0.000;2022-10-16T04:59:05;3.25;;;1.60;;
70216;SDS011;57608;0.000;0.000;2022-10-16T05:01:30;3.45;;;1.80;;
70216;SDS011;57608;0.000;0.000;2022-10-16T05:03:56;4.20;;;1.77;;
70216;SDS011;57608;0.000;0.000;2022-10-16T05:06:21;3.72;;;2.13;;
70216;SDS011;57608;0.000;0.000;2022-10-16T05:08:47;3.83;;;1.95;;
70216;SDS011;57608;0.000;0.000;2022-10-16T05:11:12;2.63;;;1.80;;
70216;SDS011;57608;0.000;0.000;2022-10-16T05:13:37;3.38;;;1.90;;
70216;SDS011;57608;0.000;0.000;2022-10-16T05:16:03;3.88;;;2.22;;
70216;SDS011;57608;0.000;0.000;2022-10-16T05:18:28;3.67;;;2.13;;
70216;SDS011;57608;0.000;0.000;2022-10-16T05:20:54;3.83;;;1.95;;
70216;SDS011;57608;0.000;0.000;2022-10-16T05:23:19;4.03;;;2.00;;
70216;SDS011;57608;0.000;0.000;2022-10-16T05:25:51;5.53;;;3.10;;
70216;SDS011;57608;0.000;0.000;2022-10-16T05:28:18;3.72;;;2.70;;
70216;SDS011;57608;0.000;0.000;2022-10-16T05:30:44;3.90;;;1.98;;
70216;SDS011;57608;0.000;0.000;2022-10-16T05:33:09;3.97;;;2.40;;
70216;SDS011;57608;0.000;0.000;2022-10-16T05:35:35;4.78;;;2.40;;
70216;SDS011;57608;0.000;0.000;2022-10-16T05:38:00;4.00;;;2.28;;
70216;SDS011;57608;0.000;0.000;2022-10-16T05:40:25;3.60;;;2.28;;
70216;SDS011;57608;0.000;0.000;2022-10-16T05:42:54;3.55;;;2.42;;
70216;SDS011;57608;0.000;0.000;2022-10-16T05:45:22;4.10;;;2.30;;
70216;SDS011;57608;0.000;0.000;2022-10-16T05:47:48;4.13;;;2.30;;
70216;SDS011;57608;0.000;0.000;2022-10-16T05:50:13;3.28;;;2.03;;
70216;SDS011;57608;0.000;0.000;2022-10-16T05:52:39;4.85;;;2.17;;
70216;SDS011;57608;0.000;0.000;2022-10-16T05:55:04;4.30;;;2.25;;
70216;SDS011;57608;0.000;0.000;2022-10-16T05:57:30;4.55;;;2.80;;
70216;SDS011;57608;0.000;0.000;2022-10-16T05:59:56;6.30;;;2.58;;
70216;SDS011;57608;0.000;0.000;2022-10-16T06:02:21;5.70;;;2.40;;
70216;SDS011;57608;0.000;0.000;2022-10-16T06:04:47;5.15;;;2.70;;
70216;SDS011;57608;0.000;0.000;2022-10-16T06:07:12;8.27;;;3.70;;
70216;SDS011;57608;0.000;0.000;2022-10-16T06:09:38;6.30;;;4.05;;
70216;SDS011;57608;0.000;0.000;2022-10-16T06:12:03;6.68;;;4.15;;
70216;SDS011;57608;0.000;0.000;2022-10-16T06:14:29;8.00;;;4.10;;
70216;SDS011;57608;0.000;0.000;2022-10-16T06:16:54;13.32;;;7.95;;
70216;SDS011;57608;0.000;0.000;2022-10-16T06:19:19;8.35;;;4.30;;
70216;SDS011;57608;0.000;0.000;2022-10-16T06:21:45;6.35;;;3.75;;
70216;SDS011;57608;0.000;0.000;2022-10-16T06:24:11;7.68;;;3.83;;
70216;SDS011;57608;0.000;0.000;2022-10-16T06:26:36;5.07;;;3.17;;
70216;SDS011;57608;0.000;0.000;2022-10-16T06:29:03;9.80;;;4.35;;
70216;SDS011;57608;0.000;0.000;2022-10-16T06:31:28;7.20;;;3.97;;
70216;SDS011;57608;0.000;0.000;2022-10-16T06:33:56;5.53;;;3.15;;
70216;SDS011;57608;0.000;0.000;2022-10-16T06:36:22;5.53;;;3.20;;
70216;SDS011;57608;0.000;0.000;2022-10-16T06:38:48;19.77;;;13.57;;
70216;SDS011;57608;0.000;0.000;2022-10-16T06:41:15;18.05;;;13.15;;
70216;SDS011;57608;0.000;0.000;2022-10-16T06:43:42;7.38;;;4.00;;
70216;SDS011;57608;0.000;0.000;2022-10-16T06:46:09;9.35;;;3.50;;
70216;SDS011;57608;0.000;0.000;2022-10-16T06:48:36;16.08;;;4.80;;
70216;SDS011;57608;0.000;0.000;2022-10-16T06:51:03;59.88;;;14.48;;
70216;SDS011;57608;0.000;0.000;2022-10-16T06:53:37;43.63;;;10.80;;
70216;SDS011;57608;0.000;0.000;2022-10-16T06:58:37;37.00;;;9.20;;
70216;SDS011;57608;0.000;0.000;2022-10-16T07:01:04;33.55;;;9.48;;
70216;SDS011;57608;0.000;0.000;2022-10-16T07:03:30;34.90;;;9.05;;
70216;SDS011;57608;0.000;0.000;2022-10-16T07:05:56;27.45;;;7.90;;
70216;SDS011;57608;0.000;0.000;2022-10-16T07:08:21;23.98;;;7.72;;
70216;SDS011;57608;0.000;0.000;2022-10-16T07:10:47;21.67;;;7.15;;
70216;SDS011;57608;0.000;0.000;2022-10-16T07:13:13;24.02;;;7.55;;
70216;SDS011;57608;0.000;0.000;2022-10-16T07:15:39;17.15;;;6.35;;
70216;SDS011;57608;0.000;0.000;2022-10-16T07:18:05;18.83;;;6.13;;
70216;SDS011;57608;0.000;0.000;2022-10-16T07:20:34;14.55;;;6.07;;
70216;SDS011;57608;0.000;0.000;2022-10-16T07:22:59;15.88;;;5.47;;
70216;SDS011;57608;0.000;0.000;2022-10-16T07:25:24;13.60;;;5.28;;
70216;SDS011;57608;0.000;0.000;2022-10-16T07:27:50;15.75;;;5.25;;
70216;SDS011;57608;0.000;0.000;2022-10-16T07:30:21;10.70;;;4.40;;
70216;SDS011;57608;0.000;0.000;2022-10-16T07:32:47;11.20;;;4.65;;
70216;SDS011;57608;0.000;0.000;2022-10-16T07:35:12;9.52;;;4.22;;
70216;SDS011;57608;0.000;0.000;2022-10-16T07:37:38;10.93;;;4.10;;
70216;SDS011;57608;0.000;0.000;2022-10-16T07:40:03;12.43;;;3.63;;
70216;SDS011;57608;0.000;0.000;2022-10-16T07:42:29;7.95;;;4.15;;
70216;SDS011;57608;0.000;0.000;2022-10-16T07:44:54;12.90;;;4.78;;
70216;SDS011;57608;0.000;0.000;2022-10-16T07:47:20;8.55;;;3.80;;
70216;SDS011;57608;0.000;0.000;2022-10-16T07:49:45;9.68;;;3.67;;
70216;SDS011;57608;0.000;0.000;2022-10-16T07:52:11;10.15;;;3.60;;
70216;SDS011;57608;0.000;0.000;2022-10-16T07:54:36;9.93;;;3.33;;
70216;SDS011;57608;0.000;0.000;2022-10-16T07:57:02;8.20;;;3.45;;
70216;SDS011;57608;0.000;0.000;2022-10-16T07:59:27;5.93;;;3.22;;
70216;SDS011;57608;0.000;0.000;2022-10-16T08:01:52;5.90;;;3.08;;
70216;SDS011;57608;0.000;0.000;2022-10-16T08:04:18;8.35;;;3.80;;
70216;SDS011;57608;0.000;0.000;2022-10-16T08:06:43;8.95;;;3.60;;
70216;SDS011;57608;0.000;0.000;2022-10-16T08:09:09;10.85;;;4.40;;
70216;SDS011;57608;0.000;0.000;2022-10-16T08:11:34;8.45;;;3.80;;
70216;SDS011;57608;0.000;0.000;2022-10-16T08:14:00;7.90;;;3.15;;
70216;SDS011;57608;0.000;0.000;2022-10-16T08:16:25;8.10;;;3.20;;
70216;SDS011;57608;0.000;0.000;2022-10-16T08:18:51;8.63;;;3.33;;
70216;SDS011;57608;0.000;0.000;2022-10-16T08:21:17;14.35;;;8.40;;
70216;SDS011;57608;0.000;0.000;2022-10-16T08:23:45;9.65;;;4.60;;
70216;SDS011;57608;0.000;0.000;2022-10-16T08:26:11;6.97;;;4.45;;
70216;SDS011;57608;0.000;0.000;2022-10-16T08:28:38;8.45;;;3.55;;
70216;SDS011;57608;0.000;0.000;2022-10-16T08:31:08;8.07;;;4.15;;
70216;SDS011;57608;0.000;0.000;2022-10-16T08:33:34;10.20;;;5.88;;
70216;SDS011;57608;0.000;0.000;2022-10-16T08:36:01;9.73;;;4.60;;
70216;SDS011;57608;0.000;0.000;2022-10-16T08:38:27;6.30;;;4.20;;
70216;SDS011;57608;0.000;0.000;2022-10-16T08:40:52;10.25;;;3.88;;
70216;SDS011;57608;0.000;0.000;2022-10-16T08:43:30;7.90;;;4.60;;
70216;SDS011;57608;0.000;0.000;2022-10-16T08:46:13;10.65;;;4.40;;
70216;SDS011;57608;0.000;0.000;2022-10-16T08:48:59;6.18;;;3.75;;
70216;SDS011;57608;0.000;0.000;2022-10-16T08:51:31;8.88;;;3.22;;
70216;SDS011;57608;0.000;0.000;2022-10-16T08:54:04;6.45;;;2.92;;
70216;SDS011;57608;0.000;0.000;2022-10-16T08:56:31;6.50;;;2.88;;
70216;SDS011;57608;0.000;0.000;2022-10-16T08:58:59;5.80;;;2.90;;
70216;SDS011;57608;0.000;0.000;2022-10-16T09:01:27;4.32;;;2.50;;
70216;SDS011;57608;0.000;0.000;2022-10-16T09:04:07;5.13;;;2.58;;
70216;SDS011;57608;0.000;0.000;2022-10-16T09:12:53;7.45;;;3.97;;
70216;SDS011;57608;0.000;0.000;2022-10-16T09:23:12;8.93;;;6.20;;
70216;SDS011;57608;0.000;0.000;2022-10-16T09:25:41;7.32;;;4.10;;
70216;SDS011;57608;0.000;0.000;2022-10-16T09:28:09;6.47;;;3.20;;
70216;SDS011;57608;0.000;0.000;2022-10-16T09:30:35;6.18;;;2.72;;
70216;SDS011;57608;0.000;0.000;2022-10-16T09:33:02;5.90;;;2.80;;
70216;SDS011;57608;0.000;0.000;2022-10-16T09:35:48;5.28;;;2.70;;
70216;SDS011;57608;0.000;0.000;2022-10-16T09:38:34;7.70;;;2.90;;
70216;SDS011;57608;0.000;0.000;2022-10-16T09:41:14;8.52;;;2.70;;
70216;SDS011;57608;0.000;0.000;2022-10-16T09:48:57;4.03;;;2.28;;
70216;SDS011;57608;0.000;0.000;2022-10-16T09:54:01;4.97;;;2.20;;
70216;SDS011;57608;0.000;0.000;2022-10-16T09:56:38;5.53;;;2.40;;
70216;SDS011;57608;0.000;0.000;2022-10-16T09:59:17;5.30;;;2.17;;
70216;SDS011;57608;0.000;0.000;2022-10-16T10:01:46;5.07;;;2.10;;
70216;SDS011;57608;0.000;0.000;2022-10-16T10:04:16;5.70;;;2.47;;
70216;SDS011;57608;0.000;0.000;2022-10-16T10:06:50;5.55;;;2.00;;
70216;SDS011;57608;0.000;0.000;2022-10-16T10:09:27;5.85;;;2.13;;
70216;SDS011;57608;0.000;0.000;2022-10-16T10:11:59;4.90;;;1.80;;
70216;SDS011;57608;0.000;0.000;2022-10-16T10:14:47;3.65;;;1.90;;
70216;SDS011;57608;0.000;0.000;2022-10-16T10:19:56;4.10;;;2.03;;
70216;SDS011;57608;0.000;0.000;2022-10-16T10:32:55;3.50;;;2.30;;
70216;SDS011;57608;0.000;0.000;2022-10-16T10:40:51;6.75;;;2.15;;
70216;SDS011;57608;0.000;0.000;2022-10-16T10:43:56;3.72;;;1.88;;
70216;SDS011;57608;0.000;0.000;2022-10-16T10:46:34;5.88;;;2.03;;
70216;SDS011;57608;0.000;0.000;2022-10-16T11:00:01;3.40;;;2.05;;
70216;SDS011;57608;0.000;0.000;2022-10-16T11:05:43;5.70;;;3.17;;
70216;SDS011;57608;0.000;0.000;2022-10-16T11:08:19;4.18;;;2.40;;
70216;SDS011;57608;0.000;0.000;2022-10-16T11:11:01;5.10;;;2.28;;
70216;SDS011;57608;0.000;0.000;2022-10-16T11:27:52;3.83;;;2.55;;
70216;SDS011;57608;0.000;0.000;2022-10-16T11:30:21;5.03;;;2.50;;
70216;SDS011;57608;0.000;0.000;2022-10-16T11:32:54;4.22;;;2.30;;
70216;SDS011;57608;0.000;0.000;2022-10-16T11:35:37;3.53;;;2.00;;
70216;SDS011;57608;0.000;0.000;2022-10-16T11:38:03;5.43;;;1.98;;
70216;SDS011;57608;0.000;0.000;2022-10-16T11:40:54;4.40;;;1.85;;
70216;SDS011;57608;0.000;0.000;2022-10-16T11:43:26;3.90;;;2.20;;
70216;SDS011;57608;0.000;0.000;2022-10-16T11:45:58;3.42;;;1.90;;
70216;SDS011;57608;0.000;0.000;2022-10-16T11:48:35;3.75;;;1.90;;
70216;SDS011;57608;0.000;0.000;2022-10-16T11:51:14;4.35;;;2.05;;
70216;SDS011;57608;0.000;0.000;2022-10-16T11:56:28;4.18;;;2.00;;
70216;SDS011;57608;0.000;0.000;2022-10-16T11:58:59;4.55;;;1.63;;
70216;SDS011;57608;0.000;0.000;2022-10-16T12:04:16;3.95;;;1.90;;
70216;SDS011;57608;0.000;0.000;2022-10-16T12:09:32;12.20;;;9.10;;
70216;SDS011;57608;0.000;0.000;2022-10-16T12:16:57;7.75;;;5.00;;
70216;SDS011;57608;0.000;0.000;2022-10-16T12:19:56;5.82;;;4.20;;
70216;SDS011;57608;0.000;0.000;2022-10-16T12:24:53;5.80;;;3.28;;
70216;SDS011;57608;0.000;0.000;2022-10-16T12:27:40;4.72;;;2.83;;
70216;SDS011;57608;0.000;0.000;2022-10-16T12:30:05;6.00;;;2.70;;
70216;SDS011;57608;0.000;0.000;2022-10-16T12:35:00;5.63;;;2.67;;
70216;SDS011;57608;0.000;0.000;2022-10-16T12:37:31;4.43;;;2.70;;
70216;SDS011;57608;0.000;0.000;2022-10-16T12:39:59;4.68;;;2.47;;
70216;SDS011;57608;0.000;0.000;2022-10-16T12:42:35;5.30;;;2.83;;
70216;SDS011;57608;0.000;0.000;2022-10-16T12:45:01;5.13;;;2.35;;
70216;SDS011;57608;0.000;0.000;2022-10-16T12:47:50;4.85;;;2.35;;
70216;SDS011;57608;0.000;0.000;2022-10-16T12:50:36;4.10;;;2.58;;
70216;SDS011;57608;0.000;0.000;2022-10-16T12:53:17;6.30;;;2.50;;
70216;SDS011;57608;0.000;0.000;2022-10-16T13:06:45;5.35;;;2.00;;
70216;SDS011;57608;0.000;0.000;2022-10-16T13:23:31;3.70;;;2.15;;
70216;SDS011;57608;0.000;0.000;2022-10-16T13:28:06;4.00;;;2.00;;
70216;SDS011;57608;0.000;0.000;2022-10-16T13:30:38;4.32;;;1.95;;
70216;SDS011;57608;0.000;0.000;2022-10-16T13:33:07;2.78;;;1.60;;
70216;SDS011;57608;0.000;0.000;2022-10-16T13:35:46;3.45;;;2.00;;
70216;SDS011;57608;0.000;0.000;2022-10-16T13:38:23;3.70;;;2.08;;
70216;SDS011;57608;0.000;0.000;2022-10-16T13:40:55;3.40;;;2.00;;
70216;SDS011;57608;0.000;0.000;2022-10-16T13:43:38;3.22;;;1.77;;
70216;SDS011;57608;0.000;0.000;2022-10-16T13:48:44;3.65;;;2.03;;
70216;SDS011;57608;0.000;0.000;2022-10-16T13:53:35;3.10;;;1.90;;
70216;SDS011;57608;0.000;0.000;2022-10-16T13:56:02;3.63;;;1.80;;
70216;SDS011;57608;0.000;0.000;2022-10-16T13:58:29;3.97;;;2.10;;
70216;SDS011;57608;0.000;0.000;2022-10-16T14:00:57;3.88;;;1.85;;
70216;SDS011;57608;0.000;0.000;2022-10-16T14:03:27;2.92;;;1.83;;
70216;SDS011;57608;0.000;0.000;2022-10-16T14:05:55;3.22;;;2.28;;
70216;SDS011;57608;0.000;0.000;2022-10-16T14:08:23;3.72;;;2.15;;
70216;SDS011;57608;0.000;0.000;2022-10-16T14:10:51;6.22;;;2.47;;
70216;SDS011;57608;0.000;0.000;2022-10-16T14:13:30;4.53;;;2.25;;
70216;SDS011;57608;0.000;0.000;2022-10-16T14:15:56;3.30;;;1.98;;
70216;SDS011;57608;0.000;0.000;2022-10-16T14:18:24;4.38;;;2.13;;
70216;SDS011;57608;0.000;0.000;2022-10-16T14:20:52;6.15;;;2.40;;
70216;SDS011;57608;0.000;0.000;2022-10-16T14:28:35;3.78;;;2.40;;
70216;SDS011;57608;0.000;0.000;2022-10-16T14:31:02;3.30;;;2.05;;
70216;SDS011;57608;0.000;0.000;2022-10-16T14:34:02;3.50;;;1.90;;
70216;SDS011;57608;0.000;0.000;2022-10-16T14:36:27;4.43;;;2.35;;
70216;SDS011;57608;0.000;0.000;2022-10-16T14:39:04;4.43;;;2.30;;
70216;SDS011;57608;0.000;0.000;2022-10-16T14:41:46;3.42;;;2.10;;
70216;SDS011;57608;0.000;0.000;2022-10-16T14:44:13;3.78;;;2.15;;
70216;SDS011;57608;0.000;0.000;2022-10-16T14:46:42;3.97;;;2.30;;
70216;SDS011;57608;0.000;0.000;2022-10-16T14:51:35;3.13;;;1.95;;
70216;SDS011;57608;0.000;0.000;2022-10-16T14:54:01;5.07;;;2.35;;
70216;SDS011;57608;0.000;0.000;2022-10-16T14:56:30;5.40;;;2.00;;
70216;SDS011;57608;0.000;0.000;2022-10-16T14:59:07;4.28;;;2.03;;
70216;SDS011;57608;0.000;0.000;2022-10-16T15:01:39;4.43;;;2.80;;
70216;SDS011;57608;0.000;0.000;2022-10-16T15:04:07;4.72;;;2.10;;
70216;SDS011;57608;0.000;0.000;2022-10-16T15:06:34;3.15;;;2.15;;
70216;SDS011;57608;0.000;0.000;2022-10-16T15:08:59;4.65;;;2.25;;
70216;SDS011;57608;0.000;0.000;2022-10-16T15:11:25;3.63;;;2.50;;
70216;SDS011;57608;0.000;0.000;2022-10-16T15:13:50;3.42;;;2.25;;
70216;SDS011;57608;0.000;0.000;2022-10-16T15:16:15;5.88;;;2.55;;
70216;SDS011;57608;0.000;0.000;2022-10-16T15:18:42;3.72;;;2.55;;
70216;SDS011;57608;0.000;0.000;2022-10-16T15:21:08;4.53;;;2.28;;
70216;SDS011;57608;0.000;0.000;2022-10-16T15:23:46;3.05;;;1.77;;
70216;SDS011;57608;0.000;0.000;2022-10-16T15:26:13;3.58;;;2.10;;
70216;SDS011;57608;0.000;0.000;2022-10-16T15:28:39;5.57;;;2.50;;
70216;SDS011;57608;0.000;0.000;2022-10-16T15:31:04;4.38;;;2.50;;
70216;SDS011;57608;0.000;0.000;2022-10-16T15:33:30;4.80;;;2.30;;
70216;SDS011;57608;0.000;0.000;2022-10-16T15:35:59;4.70;;;2.50;;
70216;SDS011;57608;0.000;0.000;2022-10-16T15:38:25;3.70;;;2.38;;
70216;SDS011;57608;0.000;0.000;2022-10-16T15:40:52;4.97;;;2.78;;
70216;SDS011;57608;0.000;0.000;2022-10-16T15:43:18;3.53;;;2.45;;
70216;SDS011;57608;0.000;0.000;2022-10-16T15:45:44;3.72;;;2.25;;
70216;SDS011;57608;0.000;0.000;2022-10-16T15:48:22;4.05;;;2.33;;
70216;SDS011;57608;0.000;0.000;2022-10-16T15:50:48;4.95;;;2.80;;
70216;SDS011;57608;0.000;0.000;2022-10-16T15:53:13;4.63;;;2.70;;
70216;SDS011;57608;0.000;0.000;2022-10-16T15:55:39;4.30;;;2.53;;
70216;SDS011;57608;0.000;0.000;2022-10-16T15:58:04;4.38;;;2.47;;
70216;SDS011;57608;0.000;0.000;2022-10-16T16:00:30;4.40;;;2.47;;
70216;SDS011;57608;0.000;0.000;2022-10-16T16:02:56;4.18;;;2.50;;
70216;SDS011;57608;0.000;0.000;2022-10-16T16:05:21;6.53;;;3.00;;
70216;SDS011;57608;0.000;0.000;2022-10-16T16:07:47;5.70;;;2.60;;
70216;SDS011;57608;0.000;0.000;2022-10-16T16:10:14;5.10;;;2.92;;
70216;SDS011;57608;0.000;0.000;2022-10-16T16:12:39;4.18;;;2.58;;
70216;SDS011;57608;0.000;0.000;2022-10-16T16:15:05;4.80;;;3.22;;
70216;SDS011;57608;0.000;0.000;2022-10-16T16:17:32;4.93;;;3.08;;
70216;SDS011;57608;0.000;0.000;2022-10-16T16:19:59;5.78;;;2.95;;
70216;SDS011;57608;0.000;0.000;2022-10-16T16:22:25;5.05;;;2.72;;
70216;SDS011;57608;0.000;0.000;2022-10-16T16:24:50;4.53;;;2.60;;
70216;SDS011;57608;0.000;0.000;2022-10-16T16:27:16;4.80;;;2.78;;
70216;SDS011;57608;0.000;0.000;2022-10-16T16:29:41;5.97;;;2.60;;
70216;SDS011;57608;0.000;0.000;2022-10-16T16:32:07;4.07;;;2.50;;
70216;SDS011;57608;0.000;0.000;2022-10-16T16:34:32;4.25;;;2.83;;
70216;SDS011;57608;0.000;0.000;2022-10-16T16:36:58;4.95;;;2.75;;
70216;SDS011;57608;0.000;0.000;2022-10-16T16:39:24;4.95;;;2.75;;
70216;SDS011;57608;0.000;0.000;2022-10-16T16:41:49;4.30;;;2.58;;
70216;SDS011;57608;0.000;0.000;2022-10-16T16:44:15;4.38;;;2.75;;
70216;SDS011;57608;0.000;0.000;2022-10-16T16:46:42;6.15;;;3.00;;
70216;SDS011;57608;0.000;0.000;2022-10-16T16:49:09;3.88;;;2.63;;
70216;SDS011;57608;0.000;0.000;2022-10-16T16:51:35;6.72;;;2.70;;
70216;SDS011;57608;0.000;0.000;2022-10-16T16:54:01;4.68;;;2.50;;
70216;SDS011;57608;0.000;0.000;2022-10-16T16:56:26;4.57;;;2.53;;
70216;SDS011;57608;0.000;0.000;2022-10-16T16:58:53;5.43;;;2.50;;
70216;SDS011;57608;0.000;0.000;2022-10-16T17:01:21;5.60;;;2.95;;
70216;SDS011;57608;0.000;0.000;2022-10-16T17:03:49;4.45;;;2.70;;
70216;SDS011;57608;0.000;0.000;2022-10-16T17:06:17;4.13;;;2.45;;
70216;SDS011;57608;0.000;0.000;2022-10-16T17:08:45;6.05;;;2.35;;
70216;SDS011;57608;0.000;0.000;2022-10-16T17:11:12;4.57;;;2.20;;
70216;SDS011;57608;0.000;0.000;2022-10-16T17:13:39;4.22;;;2.10;;
70216;SDS011;57608;0.000;0.000;2022-10-16T17:16:05;3.60;;;2.42;;
70216;SDS011;57608;0.000;0.000;2022-10-16T17:18:31;3.15;;;2.10;;
70216;SDS011;57608;0.000;0.000;2022-10-16T17:21:05;4.20;;;2.47;;
70216;SDS011;57608;0.000;0.000;2022-10-16T17:23:32;3.58;;;2.40;;
70216;SDS011;57608;0.000;0.000;2022-10-16T17:26:05;6.40;;;2.67;;
70216;SDS011;57608;0.000;0.000;2022-10-16T17:28:32;3.70;;;2.22;;
70216;SDS011;57608;0.000;0.000;2022-10-16T17:33:34;3.75;;;2.40;;
70216;SDS011;57608;0.000;0.000;2022-10-16T17:35:59;4.03;;;2.22;;
70216;SDS011;57608;0.000;0.000;2022-10-16T17:38:25;4.10;;;2.40;;
70216;SDS011;57608;0.000;0.000;2022-10-16T17:40:51;6.20;;;2.40;;